sensor_id;sensor_type;location;lat;lon;timestamp;P1;durP1;ratioP1;P2;durP2;ratioP2
61250;SDS011;47126;47.508;8.590;2023-05-14T00:02:00;15.98;;;10.07;;
61250;SDS011;47126;47.508;8.590;2023-05-14T00:04:26;16.83;;;10.57;;
61250;SDS011;47126;47.508;8.590;2023-05-14T00:06:52;18.08;;;10.18;;
61250;SDS011;47126;47.508;8.590;2023-05-14T00:09:18;16.10;;;9.75;;
61250;SDS011;47126;47.508;8.590;2023-05-14T00:11:44;15.07;;;9.02;;
61250;SDS011;47126;47.508;8.590;2023-05-14T00:14:10;15.50;;;9.52;;
61250;SDS011;47126;47.508;8.590;2023-05-14T00:16:36;17.85;;;10.40;;
61250;SDS011;47126;47.508;8.590;2023-05-14T00:19:02;16.42;;;9.63;;
61250;SDS011;47126;47.508;8.590;2023-05-14T00:21:28;14.50;;;8.73;;
61250;SDS011;47126;47.508;8.590;2023-05-14T00:23:55;14.70;;;9.25;;
61250;SDS011;47126;47.508;8.590;2023-05-14T00:26:21;15.90;;;9.25;;
61250;SDS011;47126;47.508;8.590;2023-05-14T00:28:47;17.50;;;9.60;;
61250;SDS011;47126;47.508;8.590;2023-05-14T00:31:13;16.38;;;9.93;;
61250;SDS011;47126;47.508;8.590;2023-05-14T00:33:39;17.27;;;9.93;;
61250;SDS011;47126;47.508;8.590;2023-05-14T00:36:06;17.45;;;9.75;;
61250;SDS011;47126;47.508;8.590;2023-05-14T00:38:32;16.27;;;9.50;;
61250;SDS011;47126;47.508;8.590;2023-05-14T00:40:58;17.98;;;10.60;;
61250;SDS011;47126;47.508;8.590;2023-05-14T00:43:24;19.95;;;10.43;;
61250;SDS011;47126;47.508;8.590;2023-05-14T00:45:51;18.73;;;10.73;;
61250;SDS011;47126;47.508;8.590;2023-05-14T00:48:17;18.45;;;10.75;;
61250;SDS011;47126;47.508;8.590;2023-05-14T00:50:44;19.08;;;9.80;;
61250;SDS011;47126;47.508;8.590;2023-05-14T00:53:10;17.30;;;10.20;;
61250;SDS011;47126;47.508;8.590;2023-05-14T00:55:40;21.77;;;10.55;;
61250;SDS011;47126;47.508;8.590;2023-05-14T00:58:06;20.42;;;11.32;;
61250;SDS011;47126;47.508;8.590;2023-05-14T01:00:34;19.40;;;11.48;;
61250;SDS011;47126;47.508;8.590;2023-05-14T01:03:00;21.92;;;11.32;;
61250;SDS011;47126;47.508;8.590;2023-05-14T01:05:28;17.52;;;10.82;;
61250;SDS011;47126;47.508;8.590;2023-05-14T01:08:03;19.48;;;11.70;;
61250;SDS011;47126;47.508;8.590;2023-05-14T01:10:34;19.20;;;11.27;;
61250;SDS011;47126;47.508;8.590;2023-05-14T01:13:12;20.13;;;11.38;;
61250;SDS011;47126;47.508;8.590;2023-05-14T01:15:38;18.25;;;10.63;;
61250;SDS011;47126;47.508;8.590;2023-05-14T01:18:09;18.77;;;11.18;;
61250;SDS011;47126;47.508;8.590;2023-05-14T01:20:35;20.17;;;10.80;;
61250;SDS011;47126;47.508;8.590;2023-05-14T01:23:01;19.63;;;11.25;;
61250;SDS011;47126;47.508;8.590;2023-05-14T01:25:28;18.27;;;11.05;;
61250;SDS011;47126;47.508;8.590;2023-05-14T01:30:36;17.02;;;10.77;;
61250;SDS011;47126;47.508;8.590;2023-05-14T01:33:05;20.55;;;11.55;;
61250;SDS011;47126;47.508;8.590;2023-05-14T01:35:31;17.80;;;10.20;;
61250;SDS011;47126;47.508;8.590;2023-05-14T01:38:02;19.63;;;10.98;;
61250;SDS011;47126;47.508;8.590;2023-05-14T01:40:29;17.65;;;10.65;;
61250;SDS011;47126;47.508;8.590;2023-05-14T01:42:56;20.17;;;10.65;;
61250;SDS011;47126;47.508;8.590;2023-05-14T01:45:25;19.08;;;11.68;;
61250;SDS011;47126;47.508;8.590;2023-05-14T01:47:52;18.63;;;10.68;;
61250;SDS011;47126;47.508;8.590;2023-05-14T01:50:18;18.15;;;10.55;;
61250;SDS011;47126;47.508;8.590;2023-05-14T01:52:44;16.95;;;10.13;;
61250;SDS011;47126;47.508;8.590;2023-05-14T01:55:10;15.07;;;9.70;;
61250;SDS011;47126;47.508;8.590;2023-05-14T01:57:36;19.67;;;10.50;;
61250;SDS011;47126;47.508;8.590;2023-05-14T02:00:02;16.80;;;10.35;;
61250;SDS011;47126;47.508;8.590;2023-05-14T02:02:28;21.42;;;10.48;;
61250;SDS011;47126;47.508;8.590;2023-05-14T02:04:54;16.08;;;9.65;;
61250;SDS011;47126;47.508;8.590;2023-05-14T02:07:20;18.30;;;10.38;;
61250;SDS011;47126;47.508;8.590;2023-05-14T02:09:46;15.73;;;9.48;;
61250;SDS011;47126;47.508;8.590;2023-05-14T02:12:12;15.40;;;8.77;;
61250;SDS011;47126;47.508;8.590;2023-05-14T02:14:38;13.75;;;8.52;;
61250;SDS011;47126;47.508;8.590;2023-05-14T02:17:04;15.02;;;8.55;;
61250;SDS011;47126;47.508;8.590;2023-05-14T02:19:30;15.93;;;9.55;;
61250;SDS011;47126;47.508;8.590;2023-05-14T02:21:57;17.63;;;9.70;;
61250;SDS011;47126;47.508;8.590;2023-05-14T02:24:23;19.08;;;10.55;;
61250;SDS011;47126;47.508;8.590;2023-05-14T02:26:49;16.70;;;10.50;;
61250;SDS011;47126;47.508;8.590;2023-05-14T02:29:15;15.20;;;8.70;;
61250;SDS011;47126;47.508;8.590;2023-05-14T02:31:41;16.50;;;9.27;;
61250;SDS011;47126;47.508;8.590;2023-05-14T02:34:08;16.85;;;9.63;;
61250;SDS011;47126;47.508;8.590;2023-05-14T02:36:34;17.17;;;10.15;;
61250;SDS011;47126;47.508;8.590;2023-05-14T02:38:59;16.08;;;9.43;;
61250;SDS011;47126;47.508;8.590;2023-05-14T02:41:26;18.88;;;10.02;;
61250;SDS011;47126;47.508;8.590;2023-05-14T02:43:52;19.77;;;11.30;;
61250;SDS011;47126;47.508;8.590;2023-05-14T02:46:18;16.50;;;9.55;;
61250;SDS011;47126;47.508;8.590;2023-05-14T02:48:44;20.38;;;9.15;;
61250;SDS011;47126;47.508;8.590;2023-05-14T02:51:11;17.92;;;10.05;;
61250;SDS011;47126;47.508;8.590;2023-05-14T02:53:37;16.02;;;9.48;;
61250;SDS011;47126;47.508;8.590;2023-05-14T02:56:03;15.75;;;9.07;;
61250;SDS011;47126;47.508;8.590;2023-05-14T02:58:29;15.60;;;9.85;;
61250;SDS011;47126;47.508;8.590;2023-05-14T03:00:55;16.15;;;9.85;;
61250;SDS011;47126;47.508;8.590;2023-05-14T03:03:21;17.70;;;10.63;;
61250;SDS011;47126;47.508;8.590;2023-05-14T03:05:47;17.55;;;10.18;;
61250;SDS011;47126;47.508;8.590;2023-05-14T03:08:12;18.45;;;9.65;;
61250;SDS011;47126;47.508;8.590;2023-05-14T03:10:38;28.73;;;11.30;;
61250;SDS011;47126;47.508;8.590;2023-05-14T03:13:04;17.63;;;10.88;;
61250;SDS011;47126;47.508;8.590;2023-05-14T03:15:30;18.27;;;10.50;;
61250;SDS011;47126;47.508;8.590;2023-05-14T03:17:56;18.73;;;10.32;;
61250;SDS011;47126;47.508;8.590;2023-05-14T03:20:23;16.67;;;10.18;;
61250;SDS011;47126;47.508;8.590;2023-05-14T03:22:49;16.88;;;10.02;;
61250;SDS011;47126;47.508;8.590;2023-05-14T03:25:15;19.27;;;10.27;;
61250;SDS011;47126;47.508;8.590;2023-05-14T03:27:41;18.83;;;10.82;;
61250;SDS011;47126;47.508;8.590;2023-05-14T03:30:08;17.33;;;10.77;;
61250;SDS011;47126;47.508;8.590;2023-05-14T03:32:35;21.27;;;10.77;;
61250;SDS011;47126;47.508;8.590;2023-05-14T03:35:01;18.40;;;10.85;;
61250;SDS011;47126;47.508;8.590;2023-05-14T03:37:27;18.13;;;10.73;;
61250;SDS011;47126;47.508;8.590;2023-05-14T03:39:53;19.33;;;11.38;;
61250;SDS011;47126;47.508;8.590;2023-05-14T03:42:19;19.52;;;11.18;;
61250;SDS011;47126;47.508;8.590;2023-05-14T03:44:45;19.30;;;11.32;;
61250;SDS011;47126;47.508;8.590;2023-05-14T03:47:11;22.23;;;13.15;;
61250;SDS011;47126;47.508;8.590;2023-05-14T03:49:37;19.08;;;11.32;;
61250;SDS011;47126;47.508;8.590;2023-05-14T03:52:03;20.17;;;12.68;;
61250;SDS011;47126;47.508;8.590;2023-05-14T03:54:29;20.60;;;12.25;;
61250;SDS011;47126;47.508;8.590;2023-05-14T03:56:55;18.10;;;11.75;;
61250;SDS011;47126;47.508;8.590;2023-05-14T03:59:21;17.92;;;11.07;;
61250;SDS011;47126;47.508;8.590;2023-05-14T04:01:47;17.80;;;10.80;;
61250;SDS011;47126;47.508;8.590;2023-05-14T04:04:13;19.17;;;11.50;;
61250;SDS011;47126;47.508;8.590;2023-05-14T04:06:39;19.38;;;12.48;;
61250;SDS011;47126;47.508;8.590;2023-05-14T04:09:05;19.70;;;11.63;;
61250;SDS011;47126;47.508;8.590;2023-05-14T04:11:31;18.50;;;10.25;;
61250;SDS011;47126;47.508;8.590;2023-05-14T04:13:57;15.20;;;9.68;;
61250;SDS011;47126;47.508;8.590;2023-05-14T04:16:23;17.48;;;10.75;;
61250;SDS011;47126;47.508;8.590;2023-05-14T04:18:49;17.33;;;10.23;;
61250;SDS011;47126;47.508;8.590;2023-05-14T04:21:15;17.60;;;10.75;;
61250;SDS011;47126;47.508;8.590;2023-05-14T04:23:41;22.10;;;11.65;;
61250;SDS011;47126;47.508;8.590;2023-05-14T04:26:07;20.65;;;10.75;;
61250;SDS011;47126;47.508;8.590;2023-05-14T04:28:33;18.05;;;11.40;;
61250;SDS011;47126;47.508;8.590;2023-05-14T04:30:59;19.17;;;10.55;;
61250;SDS011;47126;47.508;8.590;2023-05-14T04:33:25;16.77;;;10.25;;
61250;SDS011;47126;47.508;8.590;2023-05-14T04:35:51;16.42;;;9.65;;
61250;SDS011;47126;47.508;8.590;2023-05-14T04:38:17;16.15;;;10.23;;
61250;SDS011;47126;47.508;8.590;2023-05-14T04:40:43;15.38;;;9.77;;
61250;SDS011;47126;47.508;8.590;2023-05-14T04:43:09;17.05;;;9.98;;
61250;SDS011;47126;47.508;8.590;2023-05-14T04:45:35;20.15;;;9.98;;
61250;SDS011;47126;47.508;8.590;2023-05-14T04:48:02;18.65;;;10.23;;
61250;SDS011;47126;47.508;8.590;2023-05-14T04:50:28;16.40;;;10.18;;
61250;SDS011;47126;47.508;8.590;2023-05-14T04:52:54;15.77;;;9.93;;
61250;SDS011;47126;47.508;8.590;2023-05-14T04:55:20;17.70;;;10.48;;
61250;SDS011;47126;47.508;8.590;2023-05-14T04:57:46;17.80;;;11.40;;
61250;SDS011;47126;47.508;8.590;2023-05-14T05:00:13;16.20;;;10.75;;
61250;SDS011;47126;47.508;8.590;2023-05-14T05:02:39;17.45;;;11.50;;
61250;SDS011;47126;47.508;8.590;2023-05-14T05:05:05;16.15;;;11.18;;
61250;SDS011;47126;47.508;8.590;2023-05-14T05:07:31;17.27;;;11.52;;
61250;SDS011;47126;47.508;8.590;2023-05-14T05:09:58;17.30;;;11.40;;
61250;SDS011;47126;47.508;8.590;2023-05-14T05:12:24;19.50;;;11.13;;
61250;SDS011;47126;47.508;8.590;2023-05-14T05:14:53;19.27;;;11.75;;
61250;SDS011;47126;47.508;8.590;2023-05-14T05:17:19;17.60;;;10.15;;
61250;SDS011;47126;47.508;8.590;2023-05-14T05:19:45;22.13;;;10.07;;
61250;SDS011;47126;47.508;8.590;2023-05-14T05:22:12;18.02;;;10.27;;
61250;SDS011;47126;47.508;8.590;2023-05-14T05:24:38;15.45;;;10.15;;
61250;SDS011;47126;47.508;8.590;2023-05-14T05:27:04;16.10;;;10.20;;
61250;SDS011;47126;47.508;8.590;2023-05-14T05:29:30;16.63;;;9.85;;
61250;SDS011;47126;47.508;8.590;2023-05-14T05:31:56;16.27;;;9.82;;
61250;SDS011;47126;47.508;8.590;2023-05-14T05:34:22;20.63;;;10.02;;
61250;SDS011;47126;47.508;8.590;2023-05-14T05:36:48;15.73;;;10.45;;
61250;SDS011;47126;47.508;8.590;2023-05-14T05:39:14;17.85;;;10.57;;
61250;SDS011;47126;47.508;8.590;2023-05-14T05:41:40;16.00;;;9.98;;
61250;SDS011;47126;47.508;8.590;2023-05-14T05:44:07;16.88;;;10.88;;
61250;SDS011;47126;47.508;8.590;2023-05-14T05:46:33;17.00;;;10.63;;
61250;SDS011;47126;47.508;8.590;2023-05-14T05:48:59;14.93;;;10.25;;
61250;SDS011;47126;47.508;8.590;2023-05-14T05:51:25;15.30;;;9.60;;
61250;SDS011;47126;47.508;8.590;2023-05-14T05:53:51;14.65;;;9.77;;
61250;SDS011;47126;47.508;8.590;2023-05-14T05:56:17;15.93;;;9.57;;
61250;SDS011;47126;47.508;8.590;2023-05-14T05:58:43;13.90;;;9.15;;
61250;SDS011;47126;47.508;8.590;2023-05-14T06:01:09;14.60;;;9.38;;
61250;SDS011;47126;47.508;8.590;2023-05-14T06:03:35;14.25;;;9.93;;
61250;SDS011;47126;47.508;8.590;2023-05-14T06:06:01;17.23;;;10.20;;
61250;SDS011;47126;47.508;8.590;2023-05-14T06:08:27;16.13;;;10.20;;
61250;SDS011;47126;47.508;8.590;2023-05-14T06:10:53;22.05;;;10.68;;
61250;SDS011;47126;47.508;8.590;2023-05-14T06:13:19;15.77;;;9.23;;
61250;SDS011;47126;47.508;8.590;2023-05-14T06:15:45;14.77;;;10.05;;
61250;SDS011;47126;47.508;8.590;2023-05-14T06:18:11;19.30;;;10.02;;
61250;SDS011;47126;47.508;8.590;2023-05-14T06:20:37;14.40;;;10.02;;
61250;SDS011;47126;47.508;8.590;2023-05-14T06:23:03;18.88;;;10.32;;
61250;SDS011;47126;47.508;8.590;2023-05-14T06:25:30;19.95;;;10.23;;
61250;SDS011;47126;47.508;8.590;2023-05-14T06:27:56;20.27;;;10.80;;
61250;SDS011;47126;47.508;8.590;2023-05-14T06:30:21;20.70;;;10.98;;
61250;SDS011;47126;47.508;8.590;2023-05-14T06:32:47;15.32;;;10.20;;
61250;SDS011;47126;47.508;8.590;2023-05-14T06:35:13;21.05;;;11.40;;
61250;SDS011;47126;47.508;8.590;2023-05-14T06:37:39;19.42;;;10.93;;
61250;SDS011;47126;47.508;8.590;2023-05-14T06:40:06;20.15;;;10.75;;
61250;SDS011;47126;47.508;8.590;2023-05-14T06:42:32;19.88;;;11.02;;
61250;SDS011;47126;47.508;8.590;2023-05-14T06:44:58;18.73;;;9.75;;
61250;SDS011;47126;47.508;8.590;2023-05-14T06:47:24;16.10;;;9.88;;
61250;SDS011;47126;47.508;8.590;2023-05-14T06:49:50;16.65;;;10.15;;
61250;SDS011;47126;47.508;8.590;2023-05-14T06:52:16;17.00;;;9.63;;
61250;SDS011;47126;47.508;8.590;2023-05-14T06:54:42;16.70;;;10.23;;
61250;SDS011;47126;47.508;8.590;2023-05-14T06:57:07;21.27;;;10.45;;
61250;SDS011;47126;47.508;8.590;2023-05-14T06:59:33;16.67;;;9.88;;
61250;SDS011;47126;47.508;8.590;2023-05-14T07:01:59;16.27;;;9.88;;
61250;SDS011;47126;47.508;8.590;2023-05-14T07:04:26;17.08;;;10.20;;
61250;SDS011;47126;47.508;8.590;2023-05-14T07:06:52;16.92;;;9.32;;
61250;SDS011;47126;47.508;8.590;2023-05-14T07:09:18;17.08;;;10.27;;
61250;SDS011;47126;47.508;8.590;2023-05-14T07:11:44;14.60;;;9.23;;
61250;SDS011;47126;47.508;8.590;2023-05-14T07:14:09;15.10;;;9.38;;
61250;SDS011;47126;47.508;8.590;2023-05-14T07:16:35;15.65;;;9.70;;
61250;SDS011;47126;47.508;8.590;2023-05-14T07:19:01;14.68;;;9.13;;
61250;SDS011;47126;47.508;8.590;2023-05-14T07:21:27;15.65;;;8.82;;
61250;SDS011;47126;47.508;8.590;2023-05-14T07:23:53;15.98;;;8.90;;
61250;SDS011;47126;47.508;8.590;2023-05-14T07:26:19;14.65;;;8.35;;
61250;SDS011;47126;47.508;8.590;2023-05-14T07:28:48;16.20;;;8.73;;
61250;SDS011;47126;47.508;8.590;2023-05-14T07:31:14;16.73;;;8.80;;
61250;SDS011;47126;47.508;8.590;2023-05-14T07:33:40;15.57;;;9.30;;
61250;SDS011;47126;47.508;8.590;2023-05-14T07:36:06;17.65;;;9.13;;
61250;SDS011;47126;47.508;8.590;2023-05-14T07:38:32;15.20;;;9.00;;
61250;SDS011;47126;47.508;8.590;2023-05-14T07:40:58;14.98;;;9.18;;
61250;SDS011;47126;47.508;8.590;2023-05-14T07:43:24;15.60;;;9.25;;
61250;SDS011;47126;47.508;8.590;2023-05-14T07:45:50;15.85;;;9.68;;
61250;SDS011;47126;47.508;8.590;2023-05-14T07:48:16;16.30;;;9.68;;
61250;SDS011;47126;47.508;8.590;2023-05-14T07:50:42;15.85;;;9.57;;
61250;SDS011;47126;47.508;8.590;2023-05-14T07:53:09;14.80;;;8.90;;
61250;SDS011;47126;47.508;8.590;2023-05-14T07:55:35;15.60;;;9.48;;
61250;SDS011;47126;47.508;8.590;2023-05-14T07:58:01;18.63;;;9.07;;
61250;SDS011;47126;47.508;8.590;2023-05-14T08:00:27;14.25;;;8.43;;
61250;SDS011;47126;47.508;8.590;2023-05-14T08:02:53;15.05;;;9.23;;
61250;SDS011;47126;47.508;8.590;2023-05-14T08:05:19;14.52;;;8.30;;
61250;SDS011;47126;47.508;8.590;2023-05-14T08:07:45;14.35;;;8.65;;
61250;SDS011;47126;47.508;8.590;2023-05-14T08:10:12;16.02;;;8.82;;
61250;SDS011;47126;47.508;8.590;2023-05-14T08:12:38;13.88;;;8.65;;
61250;SDS011;47126;47.508;8.590;2023-05-14T08:15:04;16.20;;;8.82;;
61250;SDS011;47126;47.508;8.590;2023-05-14T08:17:31;13.38;;;7.93;;
61250;SDS011;47126;47.508;8.590;2023-05-14T08:19:57;12.98;;;8.05;;
61250;SDS011;47126;47.508;8.590;2023-05-14T08:22:23;14.05;;;7.47;;
61250;SDS011;47126;47.508;8.590;2023-05-14T08:24:49;14.05;;;8.07;;
61250;SDS011;47126;47.508;8.590;2023-05-14T08:27:15;14.65;;;7.45;;
61250;SDS011;47126;47.508;8.590;2023-05-14T08:29:41;15.27;;;8.07;;
61250;SDS011;47126;47.508;8.590;2023-05-14T08:32:07;15.57;;;7.57;;
61250;SDS011;47126;47.508;8.590;2023-05-14T08:34:33;12.20;;;7.55;;
61250;SDS011;47126;47.508;8.590;2023-05-14T08:37:00;11.93;;;7.13;;
61250;SDS011;47126;47.508;8.590;2023-05-14T08:39:26;13.13;;;7.28;;
61250;SDS011;47126;47.508;8.590;2023-05-14T08:41:52;13.05;;;7.60;;
61250;SDS011;47126;47.508;8.590;2023-05-14T08:44:18;11.10;;;6.60;;
61250;SDS011;47126;47.508;8.590;2023-05-14T08:46:45;11.18;;;7.07;;
61250;SDS011;47126;47.508;8.590;2023-05-14T08:49:17;10.98;;;6.38;;
61250;SDS011;47126;47.508;8.590;2023-05-14T08:51:44;11.35;;;6.65;;
61250;SDS011;47126;47.508;8.590;2023-05-14T08:54:16;11.02;;;6.50;;
61250;SDS011;47126;47.508;8.590;2023-05-14T08:56:43;11.55;;;6.97;;
61250;SDS011;47126;47.508;8.590;2023-05-14T08:59:10;9.15;;;5.82;;
61250;SDS011;47126;47.508;8.590;2023-05-14T09:01:36;9.98;;;6.15;;
61250;SDS011;47126;47.508;8.590;2023-05-14T09:04:03;10.35;;;5.88;;
61250;SDS011;47126;47.508;8.590;2023-05-14T09:06:33;10.75;;;6.15;;
61250;SDS011;47126;47.508;8.590;2023-05-14T09:08:59;10.95;;;5.85;;
61250;SDS011;47126;47.508;8.590;2023-05-14T09:11:25;10.73;;;6.03;;
61250;SDS011;47126;47.508;8.590;2023-05-14T09:13:51;10.20;;;5.80;;
61250;SDS011;47126;47.508;8.590;2023-05-14T09:16:17;10.40;;;5.88;;
61250;SDS011;47126;47.508;8.590;2023-05-14T09:18:43;11.25;;;6.60;;
61250;SDS011;47126;47.508;8.590;2023-05-14T09:21:09;11.95;;;6.32;;
61250;SDS011;47126;47.508;8.590;2023-05-14T09:23:38;9.15;;;5.10;;
61250;SDS011;47126;47.508;8.590;2023-05-14T09:26:06;10.25;;;6.07;;
61250;SDS011;47126;47.508;8.590;2023-05-14T09:28:32;11.05;;;6.03;;
61250;SDS011;47126;47.508;8.590;2023-05-14T09:30:58;7.88;;;4.72;;
61250;SDS011;47126;47.508;8.590;2023-05-14T09:33:24;10.55;;;5.50;;
61250;SDS011;47126;47.508;8.590;2023-05-14T09:35:53;9.32;;;5.50;;
61250;SDS011;47126;47.508;8.590;2023-05-14T09:38:20;11.02;;;5.72;;
61250;SDS011;47126;47.508;8.590;2023-05-14T09:40:48;10.48;;;6.05;;
61250;SDS011;47126;47.508;8.590;2023-05-14T09:43:15;10.70;;;5.60;;
61250;SDS011;47126;47.508;8.590;2023-05-14T09:45:41;9.85;;;5.75;;
61250;SDS011;47126;47.508;8.590;2023-05-14T09:48:07;10.75;;;5.85;;
61250;SDS011;47126;47.508;8.590;2023-05-14T09:50:40;11.25;;;5.80;;
61250;SDS011;47126;47.508;8.590;2023-05-14T09:53:06;12.43;;;6.90;;
61250;SDS011;47126;47.508;8.590;2023-05-14T09:55:32;12.88;;;6.95;;
61250;SDS011;47126;47.508;8.590;2023-05-14T09:58:00;12.55;;;6.93;;
61250;SDS011;47126;47.508;8.590;2023-05-14T10:00:26;13.77;;;7.28;;
61250;SDS011;47126;47.508;8.590;2023-05-14T10:02:51;11.55;;;6.70;;
61250;SDS011;47126;47.508;8.590;2023-05-14T10:05:18;9.57;;;5.55;;
61250;SDS011;47126;47.508;8.590;2023-05-14T10:07:45;9.95;;;5.93;;
61250;SDS011;47126;47.508;8.590;2023-05-14T10:10:14;12.55;;;6.55;;
61250;SDS011;47126;47.508;8.590;2023-05-14T10:12:40;10.75;;;6.00;;
61250;SDS011;47126;47.508;8.590;2023-05-14T10:15:12;10.18;;;4.72;;
61250;SDS011;47126;47.508;8.590;2023-05-14T10:17:42;8.88;;;5.07;;
61250;SDS011;47126;47.508;8.590;2023-05-14T10:20:09;8.13;;;4.97;;
61250;SDS011;47126;47.508;8.590;2023-05-14T10:22:36;5.40;;;3.45;;
61250;SDS011;47126;47.508;8.590;2023-05-14T10:25:02;7.35;;;3.67;;
61250;SDS011;47126;47.508;8.590;2023-05-14T10:27:28;4.65;;;3.00;;
61250;SDS011;47126;47.508;8.590;2023-05-14T10:29:54;6.75;;;3.72;;
61250;SDS011;47126;47.508;8.590;2023-05-14T10:32:21;5.47;;;3.40;;
61250;SDS011;47126;47.508;8.590;2023-05-14T10:34:49;7.63;;;4.13;;
61250;SDS011;47126;47.508;8.590;2023-05-14T10:37:19;8.38;;;4.07;;
61250;SDS011;47126;47.508;8.590;2023-05-14T10:39:50;7.20;;;4.38;;
61250;SDS011;47126;47.508;8.590;2023-05-14T10:42:19;8.00;;;4.63;;
61250;SDS011;47126;47.508;8.590;2023-05-14T10:44:52;8.98;;;4.97;;
61250;SDS011;47126;47.508;8.590;2023-05-14T10:47:20;7.28;;;4.20;;
61250;SDS011;47126;47.508;8.590;2023-05-14T10:49:46;8.10;;;4.63;;
61250;SDS011;47126;47.508;8.590;2023-05-14T10:52:14;9.45;;;5.28;;
61250;SDS011;47126;47.508;8.590;2023-05-14T10:54:44;9.02;;;4.97;;
61250;SDS011;47126;47.508;8.590;2023-05-14T10:57:10;9.27;;;5.40;;
61250;SDS011;47126;47.508;8.590;2023-05-14T10:59:38;9.85;;;5.00;;
61250;SDS011;47126;47.508;8.590;2023-05-14T11:02:05;10.13;;;5.03;;
61250;SDS011;47126;47.508;8.590;2023-05-14T11:04:49;9.57;;;5.72;;
61250;SDS011;47126;47.508;8.590;2023-05-14T11:07:17;9.43;;;5.55;;
61250;SDS011;47126;47.508;8.590;2023-05-14T11:09:43;10.18;;;5.40;;
61250;SDS011;47126;47.508;8.590;2023-05-14T11:12:11;10.65;;;6.25;;
61250;SDS011;47126;47.508;8.590;2023-05-14T11:14:38;10.38;;;6.13;;
61250;SDS011;47126;47.508;8.590;2023-05-14T11:17:04;10.98;;;6.40;;
61250;SDS011;47126;47.508;8.590;2023-05-14T11:19:30;10.00;;;5.72;;
61250;SDS011;47126;47.508;8.590;2023-05-14T11:21:56;11.60;;;6.20;;
61250;SDS011;47126;47.508;8.590;2023-05-14T11:24:22;11.65;;;5.85;;
61250;SDS011;47126;47.508;8.590;2023-05-14T11:26:48;9.98;;;6.32;;
61250;SDS011;47126;47.508;8.590;2023-05-14T11:29:14;12.50;;;6.20;;
61250;SDS011;47126;47.508;8.590;2023-05-14T11:31:40;11.35;;;6.03;;
61250;SDS011;47126;47.508;8.590;2023-05-14T11:34:06;9.07;;;5.38;;
61250;SDS011;47126;47.508;8.590;2023-05-14T11:36:34;9.73;;;5.05;;
61250;SDS011;47126;47.508;8.590;2023-05-14T11:39:01;9.38;;;5.20;;
61250;SDS011;47126;47.508;8.590;2023-05-14T11:41:26;8.88;;;5.43;;
61250;SDS011;47126;47.508;8.590;2023-05-14T11:43:54;9.50;;;5.85;;
61250;SDS011;47126;47.508;8.590;2023-05-14T11:46:21;11.07;;;6.72;;
61250;SDS011;47126;47.508;8.590;2023-05-14T11:48:47;11.10;;;6.90;;
61250;SDS011;47126;47.508;8.590;2023-05-14T11:51:13;15.02;;;8.20;;
61250;SDS011;47126;47.508;8.590;2023-05-14T11:53:39;16.80;;;8.07;;
61250;SDS011;47126;47.508;8.590;2023-05-14T11:56:06;19.83;;;8.80;;
61250;SDS011;47126;47.508;8.590;2023-05-14T11:58:32;17.02;;;9.50;;
61250;SDS011;47126;47.508;8.590;2023-05-14T12:00:57;16.95;;;9.23;;
61250;SDS011;47126;47.508;8.590;2023-05-14T12:03:24;17.38;;;9.73;;
61250;SDS011;47126;47.508;8.590;2023-05-14T12:05:59;15.93;;;7.80;;
61250;SDS011;47126;47.508;8.590;2023-05-14T12:08:26;11.20;;;6.45;;
61250;SDS011;47126;47.508;8.590;2023-05-14T12:10:52;12.02;;;6.10;;
61250;SDS011;47126;47.508;8.590;2023-05-14T12:13:19;14.73;;;6.50;;
61250;SDS011;47126;47.508;8.590;2023-05-14T12:15:45;10.48;;;5.63;;
61250;SDS011;47126;47.508;8.590;2023-05-14T12:18:11;10.68;;;5.93;;
61250;SDS011;47126;47.508;8.590;2023-05-14T12:20:37;9.05;;;5.07;;
61250;SDS011;47126;47.508;8.590;2023-05-14T12:23:03;7.35;;;3.92;;
61250;SDS011;47126;47.508;8.590;2023-05-14T12:25:29;6.88;;;3.70;;
61250;SDS011;47126;47.508;8.590;2023-05-14T12:27:55;7.07;;;3.88;;
61250;SDS011;47126;47.508;8.590;2023-05-14T12:30:21;6.82;;;3.85;;
61250;SDS011;47126;47.508;8.590;2023-05-14T12:32:47;7.97;;;4.10;;
61250;SDS011;47126;47.508;8.590;2023-05-14T12:35:15;9.32;;;4.65;;
61250;SDS011;47126;47.508;8.590;2023-05-14T12:37:41;7.55;;;3.97;;
61250;SDS011;47126;47.508;8.590;2023-05-14T12:40:07;7.63;;;3.97;;
61250;SDS011;47126;47.508;8.590;2023-05-14T12:42:33;7.55;;;3.97;;
61250;SDS011;47126;47.508;8.590;2023-05-14T12:44:59;6.53;;;3.80;;
61250;SDS011;47126;47.508;8.590;2023-05-14T12:47:29;4.13;;;2.70;;
61250;SDS011;47126;47.508;8.590;2023-05-14T12:49:56;6.60;;;2.70;;
61250;SDS011;47126;47.508;8.590;2023-05-14T12:52:22;5.55;;;2.75;;
61250;SDS011;47126;47.508;8.590;2023-05-14T12:54:48;6.65;;;3.30;;
61250;SDS011;47126;47.508;8.590;2023-05-14T12:57:13;5.18;;;2.88;;
61250;SDS011;47126;47.508;8.590;2023-05-14T12:59:40;4.30;;;2.70;;
61250;SDS011;47126;47.508;8.590;2023-05-14T13:02:06;5.15;;;3.25;;
61250;SDS011;47126;47.508;8.590;2023-05-14T13:04:32;5.82;;;3.42;;
61250;SDS011;47126;47.508;8.590;2023-05-14T13:06:58;6.20;;;3.75;;
61250;SDS011;47126;47.508;8.590;2023-05-14T13:09:24;8.55;;;4.00;;
61250;SDS011;47126;47.508;8.590;2023-05-14T13:11:51;8.48;;;4.25;;
61250;SDS011;47126;47.508;8.590;2023-05-14T13:14:17;6.22;;;3.22;;
61250;SDS011;47126;47.508;8.590;2023-05-14T13:16:43;6.15;;;2.92;;
61250;SDS011;47126;47.508;8.590;2023-05-14T13:19:09;6.20;;;3.50;;
61250;SDS011;47126;47.508;8.590;2023-05-14T13:21:35;5.55;;;3.40;;
61250;SDS011;47126;47.508;8.590;2023-05-14T13:24:01;5.88;;;3.20;;
61250;SDS011;47126;47.508;8.590;2023-05-14T13:26:27;7.70;;;3.40;;
61250;SDS011;47126;47.508;8.590;2023-05-14T13:28:53;6.88;;;3.33;;
61250;SDS011;47126;47.508;8.590;2023-05-14T13:31:19;6.97;;;3.22;;
61250;SDS011;47126;47.508;8.590;2023-05-14T13:33:45;7.13;;;3.88;;
61250;SDS011;47126;47.508;8.590;2023-05-14T13:36:12;8.40;;;4.38;;
61250;SDS011;47126;47.508;8.590;2023-05-14T13:38:39;6.75;;;3.85;;
61250;SDS011;47126;47.508;8.590;2023-05-14T13:41:05;8.75;;;3.67;;
61250;SDS011;47126;47.508;8.590;2023-05-14T13:43:31;8.52;;;3.90;;
61250;SDS011;47126;47.508;8.590;2023-05-14T13:45:57;5.95;;;3.70;;
61250;SDS011;47126;47.508;8.590;2023-05-14T13:48:24;7.35;;;3.40;;
61250;SDS011;47126;47.508;8.590;2023-05-14T13:50:50;6.40;;;3.08;;
61250;SDS011;47126;47.508;8.590;2023-05-14T13:53:17;7.10;;;3.67;;
61250;SDS011;47126;47.508;8.590;2023-05-14T13:55:43;5.40;;;3.40;;
61250;SDS011;47126;47.508;8.590;2023-05-14T13:58:09;5.68;;;3.60;;
61250;SDS011;47126;47.508;8.590;2023-05-14T14:00:35;5.82;;;3.47;;
61250;SDS011;47126;47.508;8.590;2023-05-14T14:03:01;5.78;;;3.55;;
61250;SDS011;47126;47.508;8.590;2023-05-14T14:05:28;6.38;;;3.30;;
61250;SDS011;47126;47.508;8.590;2023-05-14T14:07:54;7.57;;;3.95;;
61250;SDS011;47126;47.508;8.590;2023-05-14T14:10:23;7.38;;;3.97;;
61250;SDS011;47126;47.508;8.590;2023-05-14T14:12:49;6.70;;;4.00;;
61250;SDS011;47126;47.508;8.590;2023-05-14T14:15:15;6.82;;;3.85;;
61250;SDS011;47126;47.508;8.590;2023-05-14T14:17:41;6.47;;;3.78;;
61250;SDS011;47126;47.508;8.590;2023-05-14T14:20:08;8.05;;;3.90;;
61250;SDS011;47126;47.508;8.590;2023-05-14T14:22:34;7.70;;;4.05;;
61250;SDS011;47126;47.508;8.590;2023-05-14T14:25:00;10.60;;;3.67;;
61250;SDS011;47126;47.508;8.590;2023-05-14T14:27:26;7.93;;;4.20;;
61250;SDS011;47126;47.508;8.590;2023-05-14T14:29:55;8.70;;;4.18;;
61250;SDS011;47126;47.508;8.590;2023-05-14T14:32:20;8.32;;;4.60;;